createdAt,value
2023-04-15T00:00:56.237Z,14.05
2023-04-15T00:03:23.062Z,12.20
2023-04-15T00:05:49.682Z,13.40
2023-04-15T00:08:16.205Z,13.68
2023-04-15T00:10:44.282Z,12.10
2023-04-15T00:13:11.082Z,12.18
2023-04-15T00:15:37.805Z,13.38
2023-04-15T00:18:04.583Z,11.98
2023-04-15T00:20:31.433Z,12.32
2023-04-15T00:22:58.841Z,15.35
2023-04-15T00:25:25.275Z,21.23
2023-04-15T00:27:51.659Z,25.73
2023-04-15T00:30:18.606Z,31.42
2023-04-15T00:32:45.064Z,27.00
2023-04-15T00:35:11.581Z,30.08
2023-04-15T00:37:38.212Z,28.33
2023-04-15T00:40:05.054Z,22.15
2023-04-15T00:42:31.692Z,18.52
2023-04-15T00:44:58.129Z,17.33
2023-04-15T00:47:25.190Z,14.90
2023-04-15T00:49:52.156Z,15.05
2023-04-15T00:52:18.871Z,12.95
2023-04-15T00:54:45.347Z,14.98
2023-04-15T00:57:11.794Z,16.52
2023-04-15T00:59:38.300Z,17.80
2023-04-15T01:02:05.663Z,15.82
2023-04-15T01:04:32.731Z,15.25
2023-04-15T01:06:59.201Z,16.60
2023-04-15T01:09:25.703Z,18.48
2023-04-15T01:11:52.446Z,16.33
2023-04-15T01:14:19.549Z,16.98
2023-04-15T01:16:46.026Z,16.27
2023-04-15T01:19:14.514Z,17.02
2023-04-15T01:21:41.190Z,15.02
2023-04-15T01:24:09.773Z,13.00
2023-04-15T01:26:37.930Z,13.10
2023-04-15T01:29:04.379Z,18.20
2023-04-15T01:31:30.785Z,14.52
2023-04-15T01:33:57.420Z,20.30
2023-04-15T01:36:23.911Z,17.58
2023-04-15T01:38:50.961Z,15.70
2023-04-15T01:41:17.495Z,16.25
2023-04-15T01:43:43.909Z,18.20
2023-04-15T01:46:10.328Z,16.50
2023-04-15T01:48:37.359Z,15.80
2023-04-15T01:51:03.833Z,15.60
2023-04-15T01:53:30.366Z,14.18
2023-04-15T01:55:57.228Z,16.13
2023-04-15T01:58:23.713Z,15.82
2023-04-15T02:00:50.196Z,16.48
2023-04-15T02:03:16.991Z,18.77
2023-04-15T02:05:43.797Z,16.13
2023-04-15T02:08:10.177Z,15.52
2023-04-15T02:10:36.596Z,18.48
2023-04-15T02:13:03.072Z,15.77
2023-04-15T02:15:29.656Z,17.80
2023-04-15T02:17:56.205Z,16.83
2023-04-15T02:20:23.349Z,17.02
2023-04-15T02:22:49.868Z,16.77
2023-04-15T02:25:19.054Z,16.23
2023-04-15T02:27:45.753Z,19.17
2023-04-15T02:30:12.211Z,16.98
2023-04-15T02:32:38.640Z,17.90
2023-04-15T02:35:05.957Z,18.85
2023-04-15T02:37:32.631Z,17.00
2023-04-15T02:39:59.044Z,15.70
2023-04-15T02:42:27.797Z,18.08
2023-04-15T02:44:55.086Z,16.52
2023-04-15T02:47:21.559Z,15.82
2023-04-15T02:49:47.992Z,19.20
2023-04-15T02:52:14.458Z,16.05
2023-04-15T02:54:40.771Z,14.73
2023-04-15T02:57:07.440Z,18.20
2023-04-15T02:59:33.844Z,19.70
2023-04-15T03:02:03.137Z,21.48
2023-04-15T03:04:30.845Z,20.48
2023-04-15T03:06:57.531Z,18.92
2023-04-15T03:09:23.969Z,15.52
2023-04-15T03:11:52.402Z,18.45
2023-04-15T03:14:19.077Z,20.05
2023-04-15T03:16:45.426Z,19.90
2023-04-15T03:19:11.858Z,17.75
2023-04-15T03:21:38.243Z,18.10
2023-04-15T03:24:04.658Z,19.23
2023-04-15T03:26:31.768Z,22.65
2023-04-15T03:28:58.501Z,17.38
2023-04-15T03:31:25.008Z,20.10
2023-04-15T03:33:51.422Z,20.65
2023-04-15T03:36:17.941Z,21.30
2023-04-15T03:38:44.425Z,22.75
2023-04-15T03:41:10.898Z,20.70
2023-04-15T03:43:37.232Z,20.48
2023-04-15T03:46:03.758Z,20.00
2023-04-15T03:48:30.216Z,22.98
2023-04-15T03:50:56.647Z,20.90
2023-04-15T03:53:23.104Z,21.15
2023-04-15T03:55:49.658Z,23.08
2023-04-15T03:58:16.004Z,21.88
2023-04-15T04:00:42.571Z,22.95
2023-04-15T04:03:09.116Z,22.85
2023-04-15T04:05:38.940Z,21.13
2023-04-15T04:10:32.022Z,21.65
2023-04-15T04:12:58.444Z,22.25
2023-04-15T04:15:24.824Z,22.00
2023-04-15T04:17:51.535Z,25.42
2023-04-15T04:20:17.929Z,24.75
2023-04-15T04:22:44.420Z,23.40
2023-04-15T04:25:11.257Z,24.50
2023-04-15T04:27:37.704Z,25.00
2023-04-15T04:30:04.989Z,22.90
2023-04-15T04:32:31.445Z,21.65
2023-04-15T04:34:57.840Z,23.85
2023-04-15T04:37:24.687Z,24.45
2023-04-15T04:39:51.273Z,23.33
2023-04-15T04:42:17.630Z,23.38
2023-04-15T04:44:43.999Z,25.30
2023-04-15T04:47:10.493Z,25.27
2023-04-15T04:49:36.895Z,21.65
2023-04-15T04:52:03.369Z,24.27
2023-04-15T04:54:31.221Z,24.63
2023-04-15T04:56:57.900Z,21.65
2023-04-15T04:59:24.645Z,24.45
2023-04-15T05:01:51.500Z,24.48
2023-04-15T05:04:17.923Z,24.45
2023-04-15T05:06:44.394Z,22.40
2023-04-15T05:09:11.103Z,22.08
2023-04-15T05:11:39.070Z,20.73
2023-04-15T05:14:05.476Z,24.23
2023-04-15T05:16:31.856Z,22.15
2023-04-15T05:18:59.869Z,26.50
2023-04-15T05:21:27.598Z,21.65
2023-04-15T05:23:54.050Z,21.17
2023-04-15T05:26:21.697Z,23.42
2023-04-15T05:28:48.120Z,21.48
2023-04-15T05:31:14.582Z,21.92
2023-04-15T05:33:40.956Z,19.10
2023-04-15T05:36:07.420Z,20.58
2023-04-15T05:38:33.826Z,20.45
2023-04-15T05:41:00.280Z,18.55
2023-04-15T05:43:26.588Z,24.88
2023-04-15T05:45:53.202Z,21.50
2023-04-15T05:48:19.636Z,19.95
2023-04-15T05:50:46.082Z,20.88
2023-04-15T05:53:12.484Z,19.08
2023-04-15T05:55:38.854Z,19.88
2023-04-15T05:58:05.311Z,20.17
2023-04-15T06:00:34.746Z,17.73
2023-04-15T06:03:01.280Z,21.05
2023-04-15T06:05:27.825Z,16.95
2023-04-15T06:07:54.318Z,18.30
2023-04-15T06:10:20.726Z,19.77
2023-04-15T06:12:47.605Z,16.98
2023-04-15T06:15:14.060Z,17.20
2023-04-15T06:17:40.563Z,19.67
2023-04-15T06:20:08.947Z,18.13
2023-04-15T06:22:36.937Z,16.65
2023-04-15T06:25:03.433Z,18.98
2023-04-15T06:27:29.835Z,18.75
2023-04-15T06:29:56.264Z,19.67
2023-04-15T06:32:22.626Z,19.55
2023-04-15T06:34:48.998Z,16.15
2023-04-15T06:37:16.499Z,17.80
2023-04-15T06:39:43.531Z,16.65
2023-04-15T06:42:10.123Z,15.27
2023-04-15T06:44:37.191Z,14.00
2023-04-15T06:47:03.670Z,16.65
2023-04-15T06:49:30.053Z,15.98
2023-04-15T06:51:56.692Z,15.25
2023-04-15T06:54:23.035Z,15.13
2023-04-15T06:56:49.996Z,16.92
2023-04-15T06:59:16.422Z,17.35
2023-04-15T07:01:42.793Z,14.32
2023-04-15T07:04:09.179Z,14.48
2023-04-15T07:06:35.808Z,13.70
2023-04-15T07:09:05.166Z,14.48
2023-04-15T07:11:32.044Z,14.38
2023-04-15T07:13:58.814Z,14.70
2023-04-15T07:16:26.614Z,12.95
2023-04-15T07:18:54.288Z,14.60
2023-04-15T07:21:21.252Z,12.98
2023-04-15T07:23:47.577Z,12.75
2023-04-15T07:26:14.014Z,12.68
2023-04-15T07:28:40.598Z,14.25
2023-04-15T07:31:07.186Z,11.85
2023-04-15T07:33:33.519Z,11.45
2023-04-15T07:35:59.986Z,11.35
2023-04-15T07:38:26.405Z,14.02
2023-04-15T07:40:52.886Z,13.13
2023-04-15T07:43:21.318Z,11.50
2023-04-15T07:45:47.754Z,13.48
2023-04-15T07:48:14.159Z,12.85
2023-04-15T07:50:40.779Z,11.77
2023-04-15T07:53:07.559Z,11.88
2023-04-15T07:55:33.956Z,14.50
2023-04-15T07:58:00.480Z,12.63
2023-04-15T08:00:26.964Z,12.10
2023-04-15T08:02:54.120Z,14.55
2023-04-15T08:05:20.703Z,10.77
2023-04-15T08:07:47.166Z,11.82
2023-04-15T08:10:14.315Z,15.65
2023-04-15T08:12:40.840Z,12.88
2023-04-15T08:15:08.338Z,11.40
2023-04-15T08:17:34.810Z,12.63
2023-04-15T08:20:01.793Z,13.98
2023-04-15T08:22:28.708Z,11.35
2023-04-15T08:24:55.082Z,12.50
2023-04-15T08:27:21.595Z,11.27
2023-04-15T08:29:48.033Z,10.25
2023-04-15T08:32:14.967Z,11.43
2023-04-15T08:34:41.530Z,11.60
2023-04-15T08:37:08.382Z,11.13
2023-04-15T08:39:34.779Z,10.40
2023-04-15T08:42:02.729Z,10.68
2023-04-15T08:44:31.508Z,11.02
2023-04-15T08:47:00.523Z,11.25
2023-04-15T08:49:27.210Z,11.68
2023-04-15T08:51:53.625Z,8.70
2023-04-15T08:54:20.292Z,10.05
2023-04-15T08:56:47.074Z,12.55
2023-04-15T08:59:13.881Z,10.55
2023-04-15T09:01:40.717Z,10.27
2023-04-15T09:04:08.288Z,10.77
2023-04-15T09:06:34.939Z,11.75
2023-04-15T09:09:01.707Z,10.10
2023-04-15T09:11:30.813Z,9.55
2023-04-15T09:16:24.028Z,11.30
2023-04-15T09:18:50.734Z,10.40
2023-04-15T09:21:17.677Z,10.95
2023-04-15T09:23:58.267Z,12.80
2023-04-15T09:26:34.980Z,10.85
2023-04-15T09:29:09.336Z,10.07
2023-04-15T09:31:38.560Z,10.60
2023-04-15T09:34:05.728Z,10.15
2023-04-15T09:36:48.619Z,10.18
2023-04-15T09:39:16.871Z,10.85
2023-04-15T09:41:44.389Z,10.88
2023-04-15T09:44:23.800Z,11.25
2023-04-15T09:46:50.218Z,11.43
2023-04-15T09:49:17.952Z,11.82
2023-04-15T09:51:54.144Z,10.18
2023-04-15T09:54:35.075Z,10.20
2023-04-15T09:57:05.401Z,10.77
2023-04-15T09:59:31.930Z,10.02
2023-04-15T10:01:58.463Z,10.63
2023-04-15T10:04:25.794Z,12.27
2023-04-15T10:06:52.398Z,12.55
2023-04-15T10:09:19.387Z,14.55
2023-04-15T10:11:46.368Z,11.02
2023-04-15T10:14:13.687Z,12.30
2023-04-15T10:16:43.154Z,13.55
2023-04-15T10:19:09.999Z,12.55
2023-04-15T10:21:37.763Z,13.48
2023-04-15T10:24:05.468Z,12.32
2023-04-15T10:26:32.397Z,12.10
2023-04-15T10:29:00.168Z,11.32
2023-04-15T10:31:26.833Z,11.80
2023-04-15T10:33:53.541Z,13.15
2023-04-15T10:36:20.630Z,11.63
2023-04-15T10:38:47.229Z,10.88
2023-04-15T10:41:20.135Z,12.90
2023-04-15T10:44:03.295Z,12.30
2023-04-15T10:46:45.877Z,10.23
2023-04-15T10:49:16.455Z,10.45
2023-04-15T10:51:47.073Z,11.63
2023-04-15T10:54:14.541Z,8.98
2023-04-15T10:56:44.850Z,10.15
2023-04-15T10:59:11.482Z,11.98
2023-04-15T11:01:50.624Z,9.80
2023-04-15T11:04:37.133Z,10.10
2023-04-15T11:07:07.022Z,10.30
2023-04-15T11:09:34.073Z,10.77
2023-04-15T11:12:10.655Z,9.68
2023-04-15T11:14:41.703Z,9.40
2023-04-15T11:17:08.240Z,8.82
2023-04-15T11:19:39.001Z,9.38
2023-04-15T11:22:11.580Z,11.45
2023-04-15T11:24:47.490Z,10.20
2023-04-15T11:27:23.980Z,10.02
2023-04-15T11:29:50.486Z,9.60
2023-04-15T11:32:16.968Z,9.25
2023-04-15T11:34:46.055Z,13.25
2023-04-15T11:37:13.063Z,9.18
2023-04-15T11:39:39.482Z,11.90
2023-04-15T11:42:16.422Z,9.32
2023-04-15T11:44:42.854Z,11.52
2023-04-15T11:47:25.065Z,9.50
2023-04-15T11:49:51.734Z,10.63
2023-04-15T11:52:18.266Z,9.45
2023-04-15T11:54:44.756Z,9.13
2023-04-15T11:57:11.452Z,9.68
2023-04-15T11:59:45.995Z,10.13
2023-04-15T12:02:13.628Z,9.10
2023-04-15T12:04:40.360Z,8.70
2023-04-15T12:07:07.583Z,8.63
2023-04-15T12:10:16.291Z,9.45
2023-04-15T12:12:42.787Z,8.18
2023-04-15T12:15:09.960Z,7.53
2023-04-15T12:17:50.814Z,10.50
2023-04-15T12:20:24.965Z,12.68
2023-04-15T12:22:51.338Z,8.18
2023-04-15T12:25:17.793Z,8.07
2023-04-15T12:27:50.764Z,8.55
2023-04-15T12:30:17.132Z,9.60
2023-04-15T12:32:45.965Z,9.55
2023-04-15T12:37:38.827Z,9.07
2023-04-15T12:40:08.415Z,9.30
2023-04-15T12:42:35.495Z,12.13
2023-04-15T12:45:02.425Z,11.40
2023-04-15T12:47:28.873Z,10.05
2023-04-15T12:49:55.349Z,9.85
2023-04-15T12:52:22.050Z,19.02
2023-04-15T12:54:48.447Z,8.85
2023-04-15T12:57:14.852Z,11.10
2023-04-15T12:59:41.490Z,10.60
2023-04-15T13:02:08.122Z,12.23
2023-04-15T13:04:34.751Z,10.27
2023-04-15T13:07:01.721Z,10.35
2023-04-15T13:09:28.160Z,10.13
2023-04-15T13:11:54.776Z,9.77
2023-04-15T13:14:21.475Z,8.65
2023-04-15T13:16:47.910Z,8.40
2023-04-15T13:19:14.481Z,10.23
2023-04-15T13:21:41.038Z,10.55
2023-04-15T13:24:07.897Z,11.70
2023-04-15T13:26:34.924Z,10.93
2023-04-15T13:29:01.378Z,10.02
2023-04-15T13:31:27.789Z,11.27
2023-04-15T13:33:54.323Z,10.35
2023-04-15T13:36:21.135Z,11.68
2023-04-15T13:38:50.463Z,10.02
2023-04-15T13:41:17.823Z,10.10
2023-04-15T13:43:44.292Z,10.20
2023-04-15T13:46:11.181Z,10.43
2023-04-15T13:48:37.754Z,10.52
2023-04-15T13:51:04.223Z,8.88
2023-04-15T13:53:39.158Z,10.75
2023-04-15T13:56:09.337Z,9.98
2023-04-15T13:58:36.635Z,10.88
2023-04-15T14:01:05.777Z,9.85
2023-04-15T14:03:33.513Z,8.75
2023-04-15T14:06:00.112Z,9.43
2023-04-15T14:08:26.706Z,9.30
2023-04-15T14:10:53.321Z,8.13
2023-04-15T14:13:20.110Z,9.45
2023-04-15T14:15:46.914Z,9.60
2023-04-15T14:18:13.483Z,8.63
2023-04-15T14:20:39.884Z,7.88
2023-04-15T14:23:08.880Z,7.95
2023-04-15T14:25:35.547Z,8.40
2023-04-15T14:28:02.440Z,9.05
2023-04-15T14:30:28.993Z,9.30
2023-04-15T14:32:55.499Z,10.65
2023-04-15T14:35:22.037Z,8.82
2023-04-15T14:37:49.621Z,9.43
2023-04-15T14:40:16.122Z,8.82
2023-04-15T14:42:42.596Z,9.70
2023-04-15T14:45:09.423Z,9.50
2023-04-15T14:47:36.065Z,7.88
2023-04-15T14:50:02.773Z,11.25
2023-04-15T14:52:30.405Z,7.57
2023-04-15T14:54:56.899Z,8.13
2023-04-15T14:57:23.276Z,9.25
2023-04-15T14:59:49.670Z,9.07
2023-04-15T15:02:26.258Z,9.65
2023-04-15T15:05:03.527Z,7.28
2023-04-15T15:07:30.098Z,9.50
2023-04-15T15:09:56.661Z,7.45
2023-04-15T15:12:23.581Z,9.93
2023-04-15T15:14:50.189Z,7.30
2023-04-15T15:17:16.638Z,8.43
2023-04-15T15:19:43.200Z,9.18
2023-04-15T15:22:09.626Z,8.27
2023-04-15T15:24:36.060Z,8.05
2023-04-15T15:27:02.883Z,9.20
2023-04-15T15:29:29.281Z,9.35
2023-04-15T15:31:55.886Z,9.25
2023-04-15T15:34:22.509Z,9.13
2023-04-15T15:36:49.184Z,7.25
2023-04-15T15:39:16.051Z,8.68
2023-04-15T15:41:42.571Z,9.23
2023-04-15T15:44:09.057Z,8.40
2023-04-15T15:46:35.535Z,9.20
2023-04-15T15:49:02.931Z,10.45
2023-04-15T15:51:29.807Z,9.13
2023-04-15T15:53:56.243Z,11.10
2023-04-15T15:56:22.695Z,8.52
2023-04-15T15:58:49.072Z,10.10
2023-04-15T16:01:15.799Z,9.05
2023-04-15T16:03:42.372Z,9.38
2023-04-15T16:06:08.971Z,9.32
2023-04-15T16:08:35.379Z,12.68
2023-04-15T16:11:01.788Z,8.50
2023-04-15T16:13:28.298Z,11.30
2023-04-15T16:15:54.691Z,10.07
2023-04-15T16:18:21.395Z,10.15
2023-04-15T16:20:48.062Z,10.18
2023-04-15T16:23:16.380Z,11.82
2023-04-15T16:25:43.701Z,11.68
2023-04-15T16:28:25.132Z,10.30
2023-04-15T16:30:53.520Z,8.07
2023-04-15T16:33:20.203Z,11.55
2023-04-15T16:35:46.526Z,9.90
2023-04-15T16:38:13.149Z,8.70
2023-04-15T16:40:39.606Z,8.63
2023-04-15T16:43:11.593Z,9.63
2023-04-15T16:45:38.216Z,10.13
2023-04-15T16:48:04.863Z,9.20
2023-04-15T16:50:31.542Z,12.13
2023-04-15T16:52:57.956Z,11.10
2023-04-15T16:55:24.514Z,12.02
2023-04-15T16:58:02.458Z,11.85
2023-04-15T17:02:59.664Z,7.90
2023-04-15T17:05:30.586Z,9.25
2023-04-15T17:07:57.152Z,8.75
2023-04-15T17:10:23.655Z,10.25
2023-04-15T17:12:52.119Z,8.40
2023-04-15T17:15:19.017Z,10.70
2023-04-15T17:17:45.514Z,10.43
2023-04-15T17:20:12.570Z,9.73
2023-04-15T17:22:38.939Z,10.23
2023-04-15T17:25:05.886Z,9.20
2023-04-15T17:27:32.347Z,12.98
2023-04-15T17:29:58.750Z,9.38
2023-04-15T17:32:26.412Z,10.77
2023-04-15T17:34:52.996Z,14.95
2023-04-15T17:37:19.399Z,9.90
2023-04-15T17:39:45.795Z,10.55
2023-04-15T17:42:12.385Z,7.60
2023-04-15T17:44:38.815Z,9.52
2023-04-15T17:47:05.205Z,10.55
2023-04-15T17:49:32.741Z,9.02
2023-04-15T17:51:59.071Z,10.13
2023-04-15T17:54:25.504Z,9.35
2023-04-15T17:56:51.965Z,8.85
2023-04-15T17:59:18.341Z,11.57
2023-04-15T18:01:45.633Z,9.20
2023-04-15T18:04:12.661Z,11.02
2023-04-15T18:06:39.316Z,11.10
2023-04-15T18:09:06.605Z,10.40
2023-04-15T18:11:33.595Z,11.40
2023-04-15T18:14:02.493Z,8.93
2023-04-15T18:16:28.937Z,11.93
2023-04-15T18:18:55.336Z,9.38
2023-04-15T18:21:21.841Z,10.32
2023-04-15T18:23:48.223Z,10.13
2023-04-15T18:26:14.625Z,12.27
2023-04-15T18:28:41.208Z,10.88
2023-04-15T18:31:07.717Z,10.10
2023-04-15T18:33:35.831Z,12.50
2023-04-15T18:36:04.879Z,10.30
2023-04-15T18:38:31.812Z,11.27
2023-04-15T18:40:58.905Z,10.55
2023-04-15T18:43:25.469Z,9.40
2023-04-15T18:45:52.385Z,13.32
2023-04-15T18:48:18.920Z,11.73
2023-04-15T18:50:45.360Z,12.85
2023-04-15T18:53:11.741Z,14.85
2023-04-15T18:55:39.050Z,11.90
2023-04-15T18:58:08.887Z,12.60
2023-04-15T19:00:39.038Z,16.02
2023-04-15T19:03:06.361Z,12.15
2023-04-15T19:05:32.923Z,15.20
2023-04-15T19:07:59.806Z,11.10
2023-04-15T19:10:28.070Z,14.10
2023-04-15T19:12:54.935Z,12.23
2023-04-15T19:15:21.578Z,13.38
2023-04-15T19:17:48.285Z,13.35
2023-04-15T19:20:14.681Z,14.43
2023-04-15T19:22:41.800Z,13.40
2023-04-15T19:25:08.541Z,11.65
2023-04-15T19:27:34.961Z,14.35
2023-04-15T19:30:02.027Z,15.68
2023-04-15T19:32:28.599Z,11.15
2023-04-15T19:34:55.050Z,13.63
2023-04-15T19:37:21.515Z,10.90
2023-04-15T19:39:47.936Z,12.05
2023-04-15T19:42:14.559Z,13.02
2023-04-15T19:44:42.877Z,12.45
2023-04-15T19:47:09.842Z,11.32
2023-04-15T19:49:36.406Z,11.73
2023-04-15T19:52:04.250Z,13.45
2023-04-15T19:54:32.266Z,11.38
2023-04-15T19:56:59.084Z,12.43
2023-04-15T19:59:25.854Z,12.20
2023-04-15T20:01:52.579Z,12.63
2023-04-15T20:04:19.268Z,12.57
2023-04-15T20:06:45.836Z,11.48
2023-04-15T20:09:12.444Z,10.68
2023-04-15T20:12:45.887Z,10.68
2023-04-15T20:14:25.615Z,9.57
2023-04-15T20:16:52.268Z,11.85
2023-04-15T20:19:18.684Z,13.38
2023-04-15T20:21:45.487Z,11.85
2023-04-15T20:24:12.024Z,10.52
2023-04-15T20:26:38.465Z,11.02
2023-04-15T20:29:05.462Z,12.73
2023-04-15T20:31:32.316Z,11.40
2023-04-15T20:33:58.739Z,11.75
2023-04-15T20:36:25.208Z,10.50
2023-04-15T20:38:51.586Z,11.05
2023-04-15T20:41:18.104Z,10.05
2023-04-15T20:43:44.532Z,10.60
2023-04-15T20:46:20.439Z,12.30
2023-04-15T20:48:47.745Z,11.35
2023-04-15T20:51:15.192Z,10.93
2023-04-15T20:53:42.163Z,10.02
2023-04-15T20:56:09.025Z,10.07
2023-04-15T20:58:35.476Z,10.70
2023-04-15T21:01:02.162Z,11.93
2023-04-15T21:03:31.760Z,10.82
2023-04-15T21:05:58.220Z,9.50
2023-04-15T21:08:29.269Z,9.63
2023-04-15T21:10:58.620Z,10.60
2023-04-15T21:13:25.073Z,10.20
2023-04-15T21:15:53.988Z,9.80
2023-04-15T21:18:21.103Z,9.95
2023-04-15T21:20:47.651Z,10.30
2023-04-15T21:23:13.996Z,11.82
2023-04-15T21:25:40.622Z,10.15
2023-04-15T21:28:07.010Z,8.90
2023-04-15T21:30:33.355Z,9.27
2023-04-15T21:32:59.773Z,9.65
2023-04-15T21:35:26.218Z,9.70
2023-04-15T21:37:52.580Z,9.07
2023-04-15T21:40:19.594Z,8.70
2023-04-15T21:42:46.084Z,10.23
2023-04-15T21:45:12.604Z,11.27
2023-04-15T21:47:56.868Z,9.98
2023-04-15T21:50:25.336Z,9.57
2023-04-15T21:52:51.765Z,11.13
2023-04-15T21:55:18.212Z,9.98
2023-04-15T21:57:44.663Z,13.27
2023-04-15T22:00:11.640Z,11.73
2023-04-15T22:02:38.338Z,10.80
2023-04-15T22:05:05.394Z,10.77
2023-04-15T22:07:31.790Z,11.57
2023-04-15T22:09:58.205Z,8.88
2023-04-15T22:12:24.574Z,11.38
2023-04-15T22:14:51.088Z,11.00
2023-04-15T22:17:17.678Z,9.55
2023-04-15T22:19:45.252Z,12.43
2023-04-15T22:22:11.687Z,9.90
2023-04-15T22:24:40.881Z,11.15
2023-04-15T22:27:07.868Z,13.27
2023-04-15T22:29:34.611Z,11.10
2023-04-15T22:32:01.230Z,14.18
2023-04-15T22:34:27.669Z,13.85
2023-04-15T22:36:54.116Z,10.52
2023-04-15T22:39:20.958Z,11.93
2023-04-15T22:41:47.415Z,11.10
2023-04-15T22:44:13.829Z,10.75
2023-04-15T22:46:40.511Z,9.45
2023-04-15T22:49:07.851Z,10.48
2023-04-15T22:51:34.346Z,9.98
2023-04-15T22:54:00.892Z,10.25
2023-04-15T22:56:27.261Z,12.48
2023-04-15T22:58:53.590Z,15.95
2023-04-15T23:01:20.918Z,10.57
2023-04-15T23:03:55.920Z,11.85
2023-04-15T23:06:24.981Z,10.90
2023-04-15T23:08:51.749Z,12.32
2023-04-15T23:11:18.495Z,11.27
2023-04-15T23:13:45.039Z,10.35
2023-04-15T23:16:11.630Z,12.15
2023-04-15T23:18:38.054Z,10.75
2023-04-15T23:21:04.608Z,10.40
2023-04-15T23:23:31.285Z,9.85
2023-04-15T23:25:57.718Z,14.25
2023-04-15T23:28:24.135Z,10.45
2023-04-15T23:30:50.700Z,11.80
2023-04-15T23:33:17.035Z,11.95
2023-04-15T23:35:43.509Z,10.50
2023-04-15T23:38:09.967Z,10.50
2023-04-15T23:40:36.359Z,12.77
2023-04-15T23:43:02.880Z,12.63
2023-04-15T23:45:29.303Z,10.10
2023-04-15T23:47:55.879Z,11.40
2023-04-15T23:50:22.329Z,12.85
2023-04-15T23:52:48.774Z,12.82
2023-04-15T23:55:15.422Z,12.65
2023-04-15T23:57:41.848Z,12.43
